Time;durP1;ratioP1;P1;durP2;ratioP2;P2;SDS_P1;SDS_P2;PMS_P1;PMS_P2;Temp;Humidity;BMP_temperature;BMP_pressure;BME280_temperature;BME280_humidity;BME280_pressure;Samples;Min_cycle;Max_cycle;Signal;HPM_P1;HPM_P2
2023/04/22 00:02:25;;;;;;;18.63;10.20;;;;;;;11.37;63.10;94910.41;5011597;28;20419;-77
2023/04/22 00:04:56;;;;;;;19.17;11.18;;;;;;;11.26;62.95;94901.00;4993659;28;20144;-77
2023/04/22 00:07:21;;;;;;;17.38;9.45;;;;;;;11.36;63.38;94943.34;5011302;28;20030;-77
2023/04/22 00:09:47;;;;;;;15.40;9.35;;;;;;;10.87;63.22;94866.69;5010125;28;20053;-77
2023/04/22 00:12:12;;;;;;;26.65;9.80;;;;;;;11.14;63.58;94908.56;4993076;28;20068;-77
2023/04/22 00:14:38;;;;;;;20.58;10.38;;;;;;;11.21;63.17;94924.94;4992580;28;20034;-77
2023/04/22 00:17:03;;;;;;;17.00;9.90;;;;;;;11.04;63.14;94884.81;4992918;28;20661;-78
2023/04/22 00:19:29;;;;;;;21.98;10.18;;;;;;;10.84;63.19;94868.03;4992830;28;20477;-77
2023/04/22 00:21:55;;;;;;;17.88;10.63;;;;;;;10.97;63.41;94887.00;5010142;28;20026;-77
2023/04/22 00:24:20;;;;;;;20.75;11.32;;;;;;;11.20;63.49;94920.72;4992990;28;20037;-77
2023/04/22 00:26:46;;;;;;;18.92;9.63;;;;;;;11.19;63.70;94929.75;4992904;28;20531;-77
2023/04/22 00:29:11;;;;;;;29.10;11.57;;;;;;;10.87;63.52;94881.81;4992182;28;20084;-78
2023/04/22 00:31:37;;;;;;;26.42;10.50;;;;;;;10.90;63.65;94900.63;4992773;28;20030;-78
2023/04/22 00:34:02;;;;;;;18.83;10.23;;;;;;;10.85;63.38;94882.06;5010354;28;20038;-77
2023/04/22 00:36:28;;;;;;;20.05;11.05;;;;;;;11.08;63.92;94933.56;4991800;28;20021;-78
2023/04/22 00:38:53;;;;;;;25.77;10.70;;;;;;;10.77;64.05;94903.91;4992493;28;20037;-78
2023/04/22 00:41:19;;;;;;;25.70;11.32;;;;;;;10.86;63.67;94896.94;4992359;28;20501;-77
2023/04/22 00:43:45;;;;;;;17.75;10.93;;;;;;;11.19;63.37;94937.72;4992590;28;20030;-77
2023/04/22 00:46:11;;;;;;;22.08;10.70;;;;;;;11.04;63.77;94920.09;4992714;28;20088;-77
2023/04/22 00:48:37;;;;;;;24.70;11.43;;;;;;;11.09;63.95;94937.81;4992651;28;20455;-77
2023/04/22 00:51:03;;;;;;;23.83;11.38;;;;;;;11.08;63.58;94944.97;5009883;28;20034;-77
2023/04/22 00:53:28;;;;;;;27.25;12.63;;;;;;;10.73;64.27;94898.41;4989341;28;20473;-77
2023/04/22 00:55:54;;;;;;;23.73;12.38;;;;;;;9.89;64.17;94772.47;4977573;28;20034;-78
2023/04/22 00:58:21;;;;;;;23.02;12.70;;;;;;;11.01;64.59;94941.88;5008670;28;20092;-78
2023/04/22 01:00:47;;;;;;;29.52;14.50;;;;;;;10.78;64.62;94902.84;4992094;28;20118;-78
2023/04/22 01:03:14;;;;;;;22.15;13.38;;;;;;;11.05;64.86;94948.22;5010085;28;20530;-78
2023/04/22 01:05:40;;;;;;;30.27;15.95;;;;;;;10.74;64.54;94905.28;5009549;28;20562;-78
2023/04/22 01:08:06;;;;;;;28.65;16.08;;;;;;;10.75;64.60;94914.81;4992046;28;20034;-77
2023/04/22 01:10:31;;;;;;;30.88;15.77;;;;;;;10.89;64.25;94935.38;4991748;28;20603;-77
2023/04/22 01:12:58;;;;;;;29.83;16.92;;;;;;;10.95;64.36;94944.88;5009955;28;20057;-77
2023/04/22 01:15:23;;;;;;;23.60;15.30;;;;;;;10.29;64.28;94845.53;4995384;28;20038;-77
2023/04/22 01:17:51;;;;;;;28.50;15.40;;;;;;;10.74;64.06;94925.72;5006245;28;20432;-77
2023/04/22 01:20:18;;;;;;;31.98;16.80;;;;;;;10.87;64.01;94948.91;5009411;28;20495;-78
2023/04/22 01:22:44;;;;;;;33.33;16.38;;;;;;;10.84;64.36;94944.16;5009563;28;20077;-78
2023/04/22 01:25:10;;;;;;;30.17;16.90;;;;;;;10.81;64.48;94945.53;4992067;28;20045;-78
2023/04/22 01:27:36;;;;;;;27.85;16.33;;;;;;;10.87;64.11;94946.25;4995550;28;20434;-77
2023/04/22 01:30:03;;;;;;;27.55;16.70;;;;;;;10.71;63.96;94920.94;4995999;28;20069;-77
2023/04/22 01:32:29;;;;;;;31.35;17.92;;;;;;;10.93;63.75;94954.97;4995823;28;20072;-77
2023/04/22 01:34:55;;;;;;;31.60;16.75;;;;;;;10.70;64.22;94925.47;5013891;28;20492;-77
2023/04/22 01:37:21;;;;;;;31.30;16.00;;;;;;;10.70;64.58;94919.38;5007232;28;20042;-77
2023/04/22 01:39:47;;;;;;;31.58;18.15;;;;;;;10.67;64.50;94928.69;4976204;28;20092;-77
2023/04/22 01:42:13;;;;;;;29.10;16.65;;;;;;;10.63;64.53;94921.56;4976031;28;20656;-77
2023/04/22 01:44:39;;;;;;;27.30;15.35;;;;;;;10.83;64.50;94935.41;4976392;28;20042;-77
2023/04/22 01:47:05;;;;;;;30.77;15.52;;;;;;;10.55;64.60;94904.38;4987440;28;20141;-77
2023/04/22 01:49:30;;;;;;;24.42;16.05;;;;;;;10.64;64.73;94918.63;5013851;28;20033;-77
2023/04/22 01:51:57;;;;;;;30.40;15.18;;;;;;;10.79;64.95;94937.06;4995425;28;20045;-77
2023/04/22 01:54:22;;;;;;;27.42;14.85;;;;;;;10.68;64.91;94929.47;5012998;28;20045;-76
2023/04/22 01:56:54;;;;;;;26.90;15.05;;;;;;;10.74;65.42;94941.63;4998183;28;20042;-76
2023/04/22 01:59:20;;;;;;;27.90;15.40;;;;;;;10.72;65.06;94941.91;5011717;28;20457;-76
2023/04/22 02:01:46;;;;;;;31.83;15.27;;;;;;;10.67;65.29;94939.31;4996274;28;20720;-76
2023/04/22 02:04:12;;;;;;;28.15;15.02;;;;;;;10.70;65.48;94943.25;4996472;28;20033;-76
2023/04/22 02:06:38;;;;;;;25.27;14.60;;;;;;;10.59;65.34;94910.72;5014162;28;20044;-76
2023/04/22 02:09:03;;;;;;;26.70;15.95;;;;;;;10.68;65.61;94929.47;5014151;28;20042;-76
2023/04/22 02:11:29;;;;;;;26.42;14.50;;;;;;;10.42;65.47;94884.63;5014118;28;20054;-76
2023/04/22 02:13:55;;;;;;;26.35;15.93;;;;;;;10.44;65.19;94894.97;4995510;28;20116;-76
2023/04/22 02:16:20;;;;;;;31.90;15.85;;;;;;;10.67;65.72;94944.59;4996221;28;20496;-76
2023/04/22 02:18:46;;;;;;;32.55;17.75;;;;;;;10.78;65.78;94948.72;4996257;28;20056;-76
2023/04/22 02:21:11;;;;;;;29.23;16.50;;;;;;;10.68;65.40;94924.19;4996336;28;20068;-76
2023/04/22 02:23:38;;;;;;;23.40;14.57;;;;;;;10.63;65.56;94922.34;5013854;28;20037;-76
2023/04/22 02:26:04;;;;;;;30.95;15.15;;;;;;;10.57;65.26;94917.38;5013900;28;20484;-76
2023/04/22 02:28:29;;;;;;;26.08;15.75;;;;;;;10.71;65.16;94935.00;5013927;28;20044;-76
2023/04/22 02:30:54;;;;;;;26.33;15.38;;;;;;;10.61;65.68;94934.28;5014137;28;20032;-77
2023/04/22 02:33:20;;;;;;;28.25;15.25;;;;;;;10.70;65.61;94940.59;5012999;28;20492;-76
2023/04/22 02:35:46;;;;;;;29.25;16.38;;;;;;;10.34;65.72;94895.03;4995264;28;20496;-76
2023/04/22 02:38:11;;;;;;;30.15;15.60;;;;;;;10.59;66.06;94929.28;4994494;28;20092;-76
2023/04/22 02:40:37;;;;;;;28.48;16.77;;;;;;;10.27;66.09;94883.97;4976613;28;20117;-76
2023/04/22 02:43:03;;;;;;;25.85;15.40;;;;;;;10.63;66.07;94929.50;4993410;28;20038;-76
2023/04/22 02:45:28;;;;;;;27.15;15.20;;;;;;;10.61;66.16;94939.59;4993949;28;20117;-76
2023/04/22 02:47:54;;;;;;;23.20;15.30;;;;;;;10.59;65.88;94947.84;4984108;28;20566;-76
2023/04/22 02:50:19;;;;;;;28.83;14.13;;;;;;;10.41;66.20;94919.38;4996034;28;20038;-76
2023/04/22 02:52:45;;;;;;;27.95;14.95;;;;;;;10.44;65.36;94911.66;4995984;28;20025;-76
2023/04/22 02:55:10;;;;;;;32.25;15.10;;;;;;;10.65;65.32;94932.69;4995744;28;20029;-76
2023/04/22 02:57:36;;;;;;;31.42;15.68;;;;;;;10.78;65.31;94955.91;4995836;28;20034;-76
2023/04/22 03:00:01;;;;;;;29.17;15.52;;;;;;;10.52;65.44;94923.53;4984562;28;20038;-76
2023/04/22 03:02:27;;;;;;;25.95;14.95;;;;;;;10.42;65.33;94903.19;4976006;28;20568;-76
2023/04/22 03:04:53;;;;;;;31.02;16.50;;;;;;;10.56;65.33;94923.75;4975676;28;20034;-76
2023/04/22 03:07:18;;;;;;;32.85;15.43;;;;;;;10.73;65.85;94953.31;4976195;28;20120;-76
2023/04/22 03:09:44;;;;;;;26.02;15.18;;;;;;;10.54;65.80;94931.97;4993524;28;20046;-76
2023/04/22 03:12:10;;;;;;;27.02;15.57;;;;;;;10.48;66.01;94924.34;4976322;28;20093;-76
2023/04/22 03:14:35;;;;;;;28.17;15.45;;;;;;;10.40;66.40;94926.53;4975501;28;20130;-76
2023/04/22 03:17:01;;;;;;;31.73;15.80;;;;;;;10.55;65.98;94961.94;4976113;28;20050;-76
2023/04/22 03:19:26;;;;;;;29.00;14.68;;;;;;;10.51;66.54;94961.72;4975937;28;20041;-76
2023/04/22 03:21:52;;;;;;;22.98;14.77;;;;;;;10.52;66.57;94965.16;4977532;28;20474;-76
2023/04/22 03:24:17;;;;;;;25.98;15.13;;;;;;;10.25;66.69;94931.94;5012481;28;20034;-76
2023/04/22 03:26:43;;;;;;;37.38;16.02;;;;;;;10.23;66.68;94927.97;4995011;28;20030;-76
2023/04/22 03:29:08;;;;;;;27.85;15.18;;;;;;;10.29;66.46;94954.19;4994859;28;20571;-76
2023/04/22 03:31:34;;;;;;;25.25;16.80;;;;;;;10.34;67.01;94979.88;5006347;28;20556;-76
2023/04/22 03:34:00;;;;;;;34.22;16.17;;;;;;;10.26;66.59;94954.75;4991846;28;20081;-76
2023/04/22 03:36:27;;;;;;;29.52;17.20;;;;;;;9.84;67.01;94904.16;4999910;28;20095;-76
2023/04/22 03:38:52;;;;;;;28.80;17.02;;;;;;;9.62;66.89;94867.44;4982286;28;20034;-77
2023/04/22 03:41:18;;;;;;;33.63;17.73;;;;;;;9.94;66.73;94949.88;4986508;28;20145;-75
2023/04/22 03:43:43;;;;;;;31.92;16.48;;;;;;;10.06;67.00;94965.47;5012540;28;20534;-76
2023/04/22 03:46:09;;;;;;;30.80;16.50;;;;;;;9.94;67.03;94947.22;5011666;28;20037;-76
2023/04/22 03:48:35;;;;;;;31.42;16.30;;;;;;;10.18;66.91;94975.72;5012543;28;20034;-76
2023/04/22 03:51:01;;;;;;;32.90;16.65;;;;;;;10.07;67.34;94974.97;4993635;28;20037;-75
2023/04/22 03:53:27;;;;;;;34.60;17.75;;;;;;;9.90;67.69;94966.63;4994560;28;20026;-76
2023/04/22 03:55:53;;;;;;;29.05;17.50;;;;;;;9.87;67.50;94962.66;4993530;28;20120;-76
2023/04/22 03:58:18;;;;;;;36.63;16.42;;;;;;;9.90;67.46;94954.16;4994154;28;20061;-75
2023/04/22 04:00:44;;;;;;;32.28;17.63;;;;;;;10.13;67.82;94992.44;5012251;28;20031;-77
2023/04/22 04:03:09;;;;;;;31.90;17.35;;;;;;;9.93;67.76;94961.53;4993999;28;20464;-76
2023/04/22 04:05:35;;;;;;;35.25;17.00;;;;;;;9.93;67.54;94963.41;5011572;28;20100;-76
2023/04/22 04:08:01;;;;;;;34.00;18.50;;;;;;;9.97;67.60;94975.03;4994105;28;20038;-76
2023/04/22 04:10:26;;;;;;;38.50;19.33;;;;;;;10.15;67.84;95002.75;4993812;28;20516;-76
2023/04/22 04:12:51;;;;;;;41.08;17.40;;;;;;;9.76;67.44;94934.66;5011358;28;20465;-76
2023/04/22 04:15:20;;;;;;;42.17;18.15;;;;;;;10.10;67.50;94978.94;5012120;28;20442;-76
2023/04/22 04:17:46;;;;;;;42.28;17.60;;;;;;;10.23;67.48;94997.69;4981007;28;20038;-75
2023/04/22 04:20:13;;;;;;;37.53;17.33;;;;;;;10.07;67.92;94973.09;4974341;28;20030;-75
2023/04/22 04:22:38;;;;;;;42.40;19.23;;;;;;;9.82;67.25;94924.81;4992309;28;20746;-76
2023/04/22 04:25:04;;;;;;;39.67;17.90;;;;;;;10.19;67.41;94986.06;4992069;28;20030;-76
2023/04/22 04:27:30;;;;;;;36.50;18.25;;;;;;;10.24;67.40;94983.38;4991666;28;20030;-75
2023/04/22 04:29:55;;;;;;;58.25;20.65;;;;;;;10.36;67.07;95012.19;5011121;28;20100;-76
2023/04/22 04:32:21;;;;;;;45.05;22.20;;;;;;;10.06;67.03;94952.22;5011986;28;20030;-76
2023/04/22 04:34:46;;;;;;;46.95;21.80;;;;;;;10.11;66.58;94954.03;4993904;28;20083;-76
2023/04/22 04:37:12;;;;;;;45.30;20.38;;;;;;;10.29;66.61;94979.91;5011505;28;20092;-76
2023/04/22 04:39:37;;;;;;;48.78;20.58;;;;;;;10.05;66.34;94935.53;4993479;28;20083;-76
2023/04/22 04:42:03;;;;;;;42.50;21.75;;;;;;;10.19;66.31;94959.56;5004306;28;20042;-76
2023/04/22 04:44:32;;;;;;;44.15;22.77;;;;;;;9.72;65.95;94882.50;4991700;28;20038;-76
2023/04/22 04:46:58;;;;;;;35.05;18.98;;;;;;;10.43;66.30;94996.78;4984953;28;20038;-76
2023/04/22 04:49:23;;;;;;;38.30;18.13;;;;;;;10.62;65.70;95034.78;5011468;28;20120;-76
2023/04/22 04:51:49;;;;;;;31.40;19.13;;;;;;;10.24;65.10;94971.97;5011096;28;20436;-76
2023/04/22 04:54:15;;;;;;;37.05;17.63;;;;;;;10.42;64.59;95000.47;5011903;28;20112;-76
2023/04/22 04:56:40;;;;;;;31.98;15.63;;;;;;;10.71;64.24;95038.44;4993661;28;20040;-76
2023/04/22 04:59:06;;;;;;;34.22;16.25;;;;;;;10.56;64.11;95024.50;5010752;28;20029;-76
2023/04/22 05:01:31;;;;;;;33.65;17.17;;;;;;;10.57;64.21;95018.13;4992346;28;20042;-76
2023/04/22 05:03:57;;;;;;;38.40;16.63;;;;;;;10.34;64.31;94988.59;5011062;28;20045;-76
2023/04/22 05:06:22;;;;;;;30.92;14.15;;;;;;;10.58;63.70;95025.81;5011277;28;20493;-76
2023/04/22 05:08:48;;;;;;;29.92;15.63;;;;;;;10.72;63.14;95048.00;4992832;28;20029;-76
2023/04/22 05:11:13;;;;;;;26.52;14.25;;;;;;;10.52;63.05;95011.03;4993539;28;20128;-76
2023/04/22 05:13:39;;;;;;;25.75;15.38;;;;;;;10.38;62.64;94996.78;4993285;28;20030;-76
2023/04/22 05:16:04;;;;;;;33.45;17.15;;;;;;;10.59;63.40;95045.97;4986430;28;20030;-76
2023/04/22 05:18:30;;;;;;;34.20;16.45;;;;;;;10.62;62.89;95034.00;4991155;28;20041;-76
2023/04/22 05:20:58;;;;;;;37.10;15.88;;;;;;;10.73;62.90;95048.78;4974172;28;20037;-76
2023/04/22 05:23:23;;;;;;;33.72;16.23;;;;;;;10.82;63.11;95055.88;4991035;28;20597;-76
2023/04/22 05:25:49;;;;;;;38.25;16.63;;;;;;;10.70;62.65;95018.28;4973840;28;20113;-76
2023/04/22 05:28:14;;;;;;;34.97;16.70;;;;;;;10.83;63.04;95056.69;4988045;28;20037;-77
2023/04/22 05:30:39;;;;;;;34.90;16.58;;;;;;;10.82;62.93;95052.44;5010534;28;20038;-76
2023/04/22 05:33:07;;;;;;;34.17;15.50;;;;;;;10.73;62.52;95017.75;5010831;28;20034;-76
2023/04/22 05:35:32;;;;;;;32.10;15.60;;;;;;;10.91;62.19;95045.44;5010778;28;20447;-76
2023/04/22 05:37:58;;;;;;;35.38;15.75;;;;;;;11.05;61.85;95056.22;4992702;28;20042;-76
2023/04/22 05:40:23;;;;;;;23.38;15.13;;;;;;;10.98;62.43;95045.16;4972973;28;20042;-76
2023/04/22 05:42:49;;;;;;;32.38;16.20;;;;;;;10.84;62.30;95031.69;4990578;28;20054;-76
2023/04/22 05:45:14;;;;;;;32.53;16.63;;;;;;;10.97;61.94;95028.44;4975410;28;20092;-76
2023/04/22 05:47:40;;;;;;;44.90;16.58;;;;;;;10.94;62.10;95014.91;5009421;28;20036;-76
2023/04/22 05:50:06;;;;;;;29.23;16.30;;;;;;;10.88;62.05;94998.25;5018930;28;20052;-76
2023/04/22 05:52:31;;;;;;;29.17;17.42;;;;;;;11.17;62.34;95044.16;4990763;28;20034;-76
2023/04/22 05:54:57;;;;;;;39.08;16.13;;;;;;;11.11;62.29;95036.53;4990602;28;20050;-76
2023/04/22 05:57:22;;;;;;;36.33;15.15;;;;;;;11.11;62.39;95034.66;4989259;28;20053;-76
2023/04/22 05:59:47;;;;;;;29.00;15.65;;;;;;;11.34;61.86;95050.91;4989831;28;20033;-76
2023/04/22 06:02:14;;;;;;;27.38;15.93;;;;;;;11.22;62.07;95025.50;4990754;28;20042;-76
2023/04/22 06:04:40;;;;;;;31.35;14.85;;;;;;;11.13;61.61;95010.50;4973260;28;20118;-76
2023/04/22 06:07:06;;;;;;;36.17;15.07;;;;;;;11.35;61.80;95028.59;4991038;28;20177;-76
2023/04/22 06:09:31;;;;;;;29.25;16.13;;;;;;;11.48;61.60;95046.50;4990720;28;20035;-76
2023/04/22 06:11:57;;;;;;;23.77;15.48;;;;;;;11.42;61.64;95051.09;4974438;28;20066;-76
2023/04/22 06:14:22;;;;;;;32.60;15.65;;;;;;;11.29;61.93;95024.41;4977605;28;20545;-76
2023/04/22 06:16:49;;;;;;;24.90;14.80;;;;;;;11.10;62.13;95021.66;4994963;28;20038;-76
2023/04/22 06:19:15;;;;;;;25.45;12.80;;;;;;;11.13;61.76;95013.16;4995655;28;20038;-76
2023/04/22 06:21:41;;;;;;;27.52;14.43;;;;;;;11.34;62.23;95049.03;5013514;28;20515;-76
2023/04/22 06:24:07;;;;;;;19.33;13.02;;;;;;;11.52;62.03;95050.97;5014726;28;20030;-76
2023/04/22 06:26:33;;;;;;;24.77;13.60;;;;;;;11.32;62.34;95042.41;5014227;28;20030;-76
2023/04/22 06:29:00;;;;;;;23.55;13.88;;;;;;;11.10;62.32;95017.16;4996441;28;20041;-76
2023/04/22 06:31:25;;;;;;;23.75;13.05;;;;;;;11.32;61.91;95021.97;5013440;28;20092;-77
2023/04/22 06:33:50;;;;;;;25.38;13.85;;;;;;;11.60;61.62;95060.97;4996649;28;20484;-76
2023/04/22 06:36:16;;;;;;;23.95;14.02;;;;;;;11.53;62.08;95038.47;5014479;28;20041;-76
2023/04/22 06:38:41;;;;;;;26.20;14.15;;;;;;;11.37;62.12;95027.22;5014079;28;20038;-76
2023/04/22 06:41:07;;;;;;;34.45;15.45;;;;;;;11.79;61.54;95060.28;4995738;28;20516;-76
2023/04/22 06:43:32;;;;;;;25.38;13.70;;;;;;;11.48;61.90;95030.56;5013803;28;20036;-76
2023/04/22 06:45:57;;;;;;;22.77;14.85;;;;;;;11.55;61.72;95012.44;4996176;28;20459;-77
2023/04/22 06:48:23;;;;;;;25.70;15.75;;;;;;;11.74;61.55;95026.59;4995961;28;20464;-77
2023/04/22 06:50:49;;;;;;;23.88;13.48;;;;;;;11.48;61.80;94998.72;5012237;28;20076;-77
2023/04/22 06:53:14;;;;;;;26.10;13.82;;;;;;;11.58;61.93;95025.16;4995476;28;20117;-77
2023/04/22 06:55:39;;;;;;;25.42;13.75;;;;;;;11.92;61.63;95040.97;5013203;28;20030;-77
2023/04/22 06:58:05;;;;;;;20.20;14.02;;;;;;;11.94;61.37;95033.53;5014129;28;20041;-77
2023/04/22 07:00:30;;;;;;;26.67;13.40;;;;;;;11.92;61.96;95059.59;5012635;28;20036;-77
2023/04/22 07:02:56;;;;;;;22.35;14.15;;;;;;;11.81;62.43;95044.84;5013473;28;20030;-77
2023/04/22 07:05:22;;;;;;;25.73;14.18;;;;;;;11.79;61.54;95017.78;5013318;28;20022;-77
2023/04/22 07:07:48;;;;;;;32.35;13.68;;;;;;;11.96;61.59;95036.69;4995871;28;20461;-76
2023/04/22 07:10:13;;;;;;;23.58;13.05;;;;;;;11.92;61.76;95046.28;4992555;28;20659;-77
2023/04/22 07:12:40;;;;;;;27.40;14.18;;;;;;;11.80;61.98;95020.16;4993323;28;20058;-77
2023/04/22 07:15:06;;;;;;;25.90;12.65;;;;;;;12.15;62.69;95063.28;4991894;28;20058;-77
2023/04/22 07:17:32;;;;;;;23.58;12.43;;;;;;;12.15;62.22;95058.75;4983049;28;20440;-77
2023/04/22 07:19:57;;;;;;;23.30;13.20;;;;;;;12.11;62.62;95060.44;4973193;28;20039;-77
2023/04/22 07:22:23;;;;;;;21.48;12.02;;;;;;;11.79;62.00;95013.25;4984140;28;20037;-77
2023/04/22 07:24:48;;;;;;;26.42;11.93;;;;;;;12.09;62.05;95051.16;4992319;28;20038;-77
2023/04/22 07:27:14;;;;;;;31.48;13.63;;;;;;;11.98;62.57;95037.97;4992195;28;20041;-77
2023/04/22 07:29:39;;;;;;;35.72;12.35;;;;;;;12.00;62.69;95043.00;4991475;28;20423;-77
2023/04/22 07:32:05;;;;;;;20.00;10.90;;;;;;;11.92;61.57;95006.44;4991886;28;20027;-77
2023/04/22 07:34:31;;;;;;;15.55;9.68;;;;;;;12.02;61.59;95048.84;4991511;28;20121;-77
2023/04/22 07:36:56;;;;;;;20.25;10.27;;;;;;;11.79;61.15;94983.22;4991886;28;20041;-77
2023/04/22 07:39:22;;;;;;;16.35;9.80;;;;;;;12.18;60.86;95026.31;4991440;28;20058;-77
2023/04/22 07:41:47;;;;;;;17.15;10.32;;;;;;;12.44;60.46;95033.91;4977681;28;20041;-77
2023/04/22 07:44:17;;;;;;;19.50;10.15;;;;;;;12.63;60.37;95045.34;4991118;28;20034;-77
2023/04/22 07:46:42;;;;;;;15.68;8.55;;;;;;;12.52;60.08;95017.28;4991786;28;20434;-77
2023/04/22 07:49:08;;;;;;;19.10;8.93;;;;;;;12.42;60.06;94994.31;4983030;28;20130;-77
2023/04/22 07:51:34;;;;;;;18.05;9.88;;;;;;;12.96;59.82;95052.28;4982671;28;20118;-77
2023/04/22 07:53:59;;;;;;;19.75;9.85;;;;;;;12.86;59.57;95031.16;4992778;28;20038;-77
2023/04/22 07:56:25;;;;;;;18.35;9.18;;;;;;;12.79;58.17;95025.41;4991735;28;20129;-77
2023/04/22 07:58:51;;;;;;;19.00;8.25;;;;;;;12.89;57.70;95021.78;4991899;28;20027;-77
2023/04/22 08:01:16;;;;;;;14.48;8.30;;;;;;;13.09;57.57;95045.41;4977881;28;20096;-77
2023/04/22 08:03:41;;;;;;;13.25;7.47;;;;;;;12.49;56.59;94976.13;4974405;28;20494;-76
2023/04/22 08:06:07;;;;;;;14.10;7.32;;;;;;;12.99;56.69;95019.75;4992443;28;20038;-77
2023/04/22 08:08:32;;;;;;;9.98;7.30;;;;;;;13.01;56.42;95001.63;4990494;28;20030;-77
2023/04/22 08:10:58;;;;;;;14.73;7.60;;;;;;;13.36;56.28;95045.50;4991189;28;20062;-77
2023/04/22 08:13:23;;;;;;;15.75;8.10;;;;;;;13.24;55.88;95007.09;4992523;28;20035;-77
2023/04/22 08:15:49;;;;;;;13.90;7.30;;;;;;;13.27;54.55;95023.31;4986456;28;20038;-77
2023/04/22 08:18:14;;;;;;;14.55;7.68;;;;;;;13.04;54.80;95002.91;4977700;28;20042;-77
2023/04/22 08:20:40;;;;;;;17.83;6.38;;;;;;;13.04;54.09;94993.06;4972949;28;20674;-77
2023/04/22 08:23:05;;;;;;;14.32;5.90;;;;;;;13.45;53.50;95038.41;4980561;28;20389;-77
2023/04/22 08:25:31;;;;;;;13.32;6.22;;;;;;;13.23;53.35;95013.50;4991149;28;20488;-77
2023/04/22 08:27:57;;;;;;;10.93;6.28;;;;;;;13.13;53.79;94969.22;4991034;28;20048;-77
2023/04/22 08:30:22;;;;;;;10.32;6.10;;;;;;;13.38;54.02;94999.91;4991296;28;20034;-77
2023/04/22 08:32:48;;;;;;;15.80;6.57;;;;;;;13.65;54.46;95018.59;4992775;28;20030;-77
2023/04/22 08:35:13;;;;;;;16.10;7.18;;;;;;;13.43;53.69;94965.19;4990893;28;20108;-77
2023/04/22 08:37:40;;;;;;;16.92;7.93;;;;;;;13.78;53.96;95006.34;4979273;28;20038;-77
2023/04/22 08:40:07;;;;;;;19.38;6.82;;;;;;;13.70;52.76;94981.19;4972961;28;20117;-77
2023/04/22 08:42:33;;;;;;;11.70;5.90;;;;;;;13.61;51.17;94960.84;4971969;28;20517;-77
2023/04/22 08:44:59;;;;;;;13.80;5.97;;;;;;;13.92;52.12;95017.78;4973287;28;20670;-77
2023/04/22 08:47:25;;;;;;;15.75;5.65;;;;;;;13.46;50.57;94954.75;4973063;28;20125;-77
2023/04/22 08:49:53;;;;;;;13.90;6.18;;;;;;;13.80;50.39;94980.97;4971681;28;20031;-77
2023/04/22 08:52:20;;;;;;;11.98;5.82;;;;;;;13.20;51.78;94939.56;4971544;28;20026;-77
2023/04/22 08:54:45;;;;;;;18.50;6.20;;;;;;;13.38;50.74;94925.34;4972922;28;20026;-77
2023/04/22 08:57:11;;;;;;;13.65;6.60;;;;;;;14.09;51.02;94996.63;4972821;28;20031;-77
2023/04/22 08:59:37;;;;;;;9.60;5.82;;;;;;;14.23;51.14;95001.94;4971259;28;20501;-77
2023/04/22 09:02:05;;;;;;;12.90;6.00;;;;;;;14.29;50.20;94985.50;4972950;28;20031;-77
2023/04/22 09:04:31;;;;;;;12.40;6.47;;;;;;;14.11;50.10;94986.44;4978178;28;20034;-77
2023/04/22 09:06:58;;;;;;;13.02;7.22;;;;;;;13.85;49.75;94935.56;4971145;28;20046;-77
2023/04/22 09:09:24;;;;;;;11.65;6.60;;;;;;;14.30;49.90;94984.44;4972902;28;20386;-78
2023/04/22 09:11:49;;;;;;;16.08;5.82;;;;;;;14.20;49.01;94976.63;4984588;28;20046;-77
2023/04/22 09:14:18;;;;;;;17.90;6.15;;;;;;;14.52;48.84;94996.25;4992108;28;20409;-77
2023/04/22 09:16:47;;;;;;;17.98;6.70;;;;;;;14.48;49.39;94996.06;4991681;28;20539;-77
2023/04/22 09:19:15;;;;;;;14.02;5.57;;;;;;;14.42;48.43;94978.56;4990149;28;20576;-77
2023/04/22 09:21:41;;;;;;;15.07;6.10;;;;;;;14.64;50.47;94983.94;4990078;28;20034;-77
2023/04/22 09:24:08;;;;;;;14.77;6.90;;;;;;;14.40;47.75;94943.44;4991846;28;20064;-77
2023/04/22 09:26:37;;;;;;;13.13;6.82;;;;;;;14.54;47.66;94978.06;4990089;28;20121;-77
2023/04/22 09:29:08;;;;;;;10.85;5.20;;;;;;;14.29;47.51;94944.72;4992208;28;20116;-77
2023/04/22 09:31:34;;;;;;;17.00;6.03;;;;;;;14.50;48.07;94953.84;4990705;28;20058;-77
2023/04/22 09:34:00;;;;;;;10.15;6.18;;;;;;;14.52;46.75;94966.88;4980942;28;20121;-77
2023/04/22 09:36:32;;;;;;;15.07;6.72;;;;;;;14.74;46.27;94974.09;4972038;28;20609;-77
2023/04/22 09:39:03;;;;;;;12.95;5.88;;;;;;;14.83;47.14;94956.25;4972964;28;20058;-77
2023/04/22 09:41:30;;;;;;;18.17;7.40;;;;;;;14.96;47.25;94966.06;4970945;28;20094;-77
2023/04/22 09:43:57;;;;;;;10.80;6.03;;;;;;;14.89;46.59;94947.81;4970934;28;20053;-77
2023/04/22 09:46:24;;;;;;;16.63;6.13;;;;;;;15.05;47.19;94911.63;4971033;28;20049;-78
2023/04/22 09:48:52;;;;;;;16.30;6.97;;;;;;;15.22;46.52;94937.63;4972563;28;20026;-77
2023/04/22 09:51:18;;;;;;;17.02;6.20;;;;;;;15.63;45.11;94973.97;4975525;28;20117;-77
2023/04/22 09:53:44;;;;;;;12.80;5.35;;;;;;;15.31;45.90;94927.75;4978832;28;20123;-77
2023/04/22 09:56:10;;;;;;;15.38;5.88;;;;;;;15.07;47.79;94930.00;4990641;28;20043;-77
2023/04/22 09:58:39;;;;;;;10.35;4.95;;;;;;;15.03;46.07;94947.72;4974491;28;20035;-77
2023/04/22 10:01:05;;;;;;;8.95;3.17;;;;;;;14.97;45.91;94956.97;4974738;28;20039;-77
2023/04/22 10:03:31;;;;;;;9.32;3.20;;;;;;;15.16;45.21;94996.84;4976008;28;20031;-77
2023/04/22 10:05:58;;;;;;;9.10;3.65;;;;;;;15.37;44.47;94987.19;4974506;28;20057;-77
2023/04/22 10:08:24;;;;;;;10.85;4.05;;;;;;;15.99;44.21;94949.66;4986093;28;20062;-78
2023/04/22 10:10:49;;;;;;;8.93;3.22;;;;;;;17.09;42.58;94973.28;4993711;28;20054;-77
2023/04/22 10:13:15;;;;;;;8.13;3.67;;;;;;;18.05;40.38;94968.00;4993902;28;20117;-77
2023/04/22 10:15:44;;;;;;;11.77;5.28;;;;;;;18.87;38.46;94979.09;4979660;28;20046;-78
2023/04/22 10:18:12;;;;;;;6.55;4.28;;;;;;;19.68;37.51;94972.25;4973970;28;20046;-78
2023/04/22 10:20:41;;;;;;;4.20;2.28;;;;;;;20.41;34.32;94973.78;4974297;28;20114;-77
2023/04/22 10:23:13;;;;;;;5.95;2.15;;;;;;;20.61;32.94;94937.00;4973661;28;20039;-78
2023/04/22 10:25:39;;;;;;;4.65;2.25;;;;;;;20.98;31.59;94966.53;4975403;28;20039;-77
2023/04/22 10:28:06;;;;;;;3.67;1.80;;;;;;;21.68;30.42;94961.41;4973846;28;20101;-77
2023/04/22 10:30:35;;;;;;;4.13;2.10;;;;;;;21.89;30.23;94962.69;4973952;28;20034;-77
2023/04/22 10:33:19;;;;;;;3.13;1.98;;;;;;;22.46;29.07;94960.53;4985117;28;20144;-78
2023/04/22 10:36:10;;;;;;;5.55;2.22;;;;;;;22.39;30.92;94957.69;4995134;28;20044;-78
2023/04/22 10:38:37;;;;;;;9.23;2.00;;;;;;;22.96;29.41;94925.25;4993206;28;20049;-78
2023/04/22 10:41:02;;;;;;;6.40;1.50;;;;;;;23.48;28.55;94934.75;4993121;28;20176;-78
2023/04/22 10:43:53;;;;;;;3.85;1.58;;;;;;;23.55;27.54;94937.56;4989728;28;20063;-77
2023/04/22 10:46:38;;;;;;;2.70;1.58;;;;;;;23.89;27.62;94941.19;4979106;28;20042;-78
2023/04/22 10:49:08;;;;;;;6.53;2.25;;;;;;;24.08;25.68;94934.91;4994102;28;20105;-78
2023/04/22 10:51:41;;;;;;;5.88;1.80;;;;;;;24.41;25.82;94939.66;4993175;28;20131;-78
2023/04/22 10:54:27;;;;;;;5.80;2.10;;;;;;;24.31;25.81;94913.97;4993281;28;20038;-77
2023/04/22 10:57:21;;;;;;;6.68;2.22;;;;;;;23.24;24.84;94935.84;4993770;28;20485;-78
2023/04/22 10:59:46;;;;;;;7.22;2.65;;;;;;;23.09;25.89;94934.03;4981079;28;20049;-77
2023/04/22 11:02:16;;;;;;;6.47;2.38;;;;;;;23.06;26.04;94937.44;4974719;28;20401;-78
2023/04/22 11:04:42;;;;;;;8.48;2.72;;;;;;;23.41;25.46;94934.59;4981457;28;20121;-78
2023/04/22 11:07:19;;;;;;;6.40;2.20;;;;;;;23.07;25.78;94945.19;4987620;28;20156;-78
2023/04/22 11:09:46;;;;;;;6.60;2.38;;;;;;;23.43;25.98;94919.53;4976988;28;20205;-78
2023/04/22 11:15:05;;;;;;;6.90;2.00;;;;;;;24.20;25.64;94938.22;4994216;28;20085;-78
2023/04/22 11:17:31;;;;;;;3.10;1.90;;;;;;;24.64;26.22;94945.00;4975682;28;20038;-78
2023/04/22 11:19:57;;;;;;;6.85;1.92;;;;;;;24.32;27.64;94907.41;4975899;28;20038;-78
2023/04/22 11:22:26;;;;;;;5.70;2.08;;;;;;;24.48;27.64;94907.22;4992481;28;20409;-78